Time;durP1;ratioP1;P1;durP2;ratioP2;P2;SDS_P1;SDS_P2;PMS_P1;PMS_P2;Temp;Humidity;BMP_temperature;BMP_pressure;BME280_temperature;BME280_humidity;BME280_pressure;Samples;Min_cycle;Max_cycle;Signal;HPM_P1;HPM_P2
2021/06/14 00:00:23;;;;;;;5.35;1.48;;;;;;;15.88;67.49;99912.31;5049856;28;20056;-23
2021/06/14 00:02:48;;;;;;;3.33;1.52;;;;;;;15.85;68.49;99929.78;5049748;28;20041;-23
2021/06/14 00:05:34;;;;;;;3.88;1.45;;;;;;;16.06;67.48;99930.72;5049960;28;20071;-23
2021/06/14 00:07:59;;;;;;;9.88;2.83;;;;;;;15.77;68.88;99929.41;5049785;28;20031;-23
2021/06/14 00:10:29;;;;;;;2.80;1.60;;;;;;;15.92;68.82;99924.16;5049563;28;20025;-23
2021/06/14 00:12:55;;;;;;;2.75;1.77;;;;;;;16.10;67.52;99924.81;5049969;28;20144;-23
2021/06/14 00:15:20;;;;;;;4.68;1.50;;;;;;;16.42;66.90;99930.94;5048263;28;20033;-23
2021/06/14 00:17:46;;;;;;;4.00;1.65;;;;;;;16.17;68.39;99912.75;5049331;28;20086;-23
2021/06/14 00:20:12;;;;;;;3.80;1.75;;;;;;;15.84;69.17;99905.81;5049425;28;20417;-23
2021/06/14 00:22:39;;;;;;;3.72;1.60;;;;;;;16.18;68.30;99919.78;5049752;28;20079;-23
2021/06/14 00:25:06;;;;;;;6.22;1.85;;;;;;;16.25;67.82;99914.16;5049520;28;20098;-23
2021/06/14 00:27:31;;;;;;;5.35;2.10;;;;;;;16.38;67.59;99924.44;5049350;28;20033;-23
2021/06/14 00:29:57;;;;;;;6.15;2.05;;;;;;;16.70;66.60;99928.13;5049257;28;20383;-23
2021/06/14 00:32:22;;;;;;;3.67;1.67;;;;;;;16.68;66.49;99931.06;5048808;28;20033;-23
2021/06/14 00:34:48;;;;;;;4.90;2.60;;;;;;;16.71;66.14;99944.00;5049202;28;20044;-23
2021/06/14 00:37:13;;;;;;;4.18;2.05;;;;;;;16.53;68.31;99939.06;5049241;28;20036;-23
2021/06/14 00:39:39;;;;;;;3.92;1.92;;;;;;;16.14;70.67;99942.06;5049181;28;20409;-23
2021/06/14 00:42:04;;;;;;;3.70;1.75;;;;;;;16.14;70.79;99947.44;5047794;28;20098;-23
2021/06/14 00:44:30;;;;;;;5.80;2.22;;;;;;;16.05;71.56;99945.22;5048639;28;20120;-23
2021/06/14 00:46:55;;;;;;;3.33;2.00;;;;;;;15.71;72.93;99933.91;5049046;28;20029;-23
2021/06/14 00:49:21;;;;;;;3.08;2.00;;;;;;;15.49;73.44;99934.00;5048996;28;20040;-23
2021/06/14 00:51:47;;;;;;;3.47;1.88;;;;;;;15.50;73.07;99916.78;5047737;28;20827;-23
2021/06/14 00:54:12;;;;;;;4.47;2.00;;;;;;;15.96;71.20;99919.88;5047221;28;20056;-23
2021/06/14 00:56:37;;;;;;;3.72;2.20;;;;;;;15.96;72.00;99903.75;5048730;28;20055;-23
2021/06/14 00:59:03;;;;;;;4.25;2.10;;;;;;;16.24;71.29;99920.59;5048775;28;20478;-23
2021/06/14 01:01:29;;;;;;;3.00;1.95;;;;;;;16.89;69.04;99921.22;5047325;28;20052;-23
2021/06/14 01:03:54;;;;;;;5.10;2.20;;;;;;;16.28;70.92;99910.94;5047895;28;20060;-23
2021/06/14 01:06:20;;;;;;;5.57;2.10;;;;;;;16.62;69.87;99905.19;5048567;28;20032;-23
2021/06/14 01:08:46;;;;;;;4.07;2.17;;;;;;;16.69;68.64;99908.44;5047233;28;20021;-23
2021/06/14 01:11:21;;;;;;;3.15;2.17;;;;;;;16.97;68.01;99907.22;5047743;28;20493;-23
2021/06/14 01:14:07;;;;;;;3.70;2.05;;;;;;;16.64;70.25;99911.13;5048413;28;20039;-23
2021/06/14 01:16:45;;;;;;;3.75;2.03;;;;;;;16.71;69.23;99892.84;5048359;28;20134;-23
2021/06/14 01:19:48;;;;;;;4.25;2.20;;;;;;;17.22;67.58;99911.06;5048551;28;20029;-23
2021/06/14 01:22:42;;;;;;;6.60;2.60;;;;;;;16.83;69.98;99906.91;5048232;28;20140;-23
2021/06/14 01:25:45;;;;;;;4.55;2.20;;;;;;;16.69;68.95;99911.13;5047775;28;20509;-23
2021/06/14 01:28:13;;;;;;;3.75;2.35;;;;;;;16.06;70.32;99909.19;5047944;28;20555;-24
2021/06/14 01:30:38;;;;;;;4.07;2.33;;;;;;;16.13;71.32;99908.16;5031058;28;20077;-23
2021/06/14 01:33:06;;;;;;;5.40;2.90;;;;;;;15.82;73.30;99910.66;5047146;28;20916;-23
2021/06/14 01:35:35;;;;;;;5.97;2.80;;;;;;;15.84;74.08;99911.19;5048551;28;20037;-23
2021/06/14 01:38:00;;;;;;;5.43;2.50;;;;;;;15.93;72.97;99888.13;5030500;28;20778;-23
2021/06/14 01:40:26;;;;;;;4.43;2.65;;;;;;;16.51;70.42;99917.81;5046800;28;20040;-23
2021/06/14 01:42:53;;;;;;;4.18;2.50;;;;;;;16.22;71.42;99906.59;5030070;28;20028;-23
2021/06/14 01:45:19;;;;;;;4.05;2.17;;;;;;;15.97;72.00;99893.81;5046809;28;20029;-23
2021/06/14 01:47:45;;;;;;;3.25;2.50;;;;;;;15.99;72.57;99903.22;5047999;28;20036;-23
2021/06/14 01:50:11;;;;;;;4.15;2.30;;;;;;;15.85;71.94;99896.66;5046412;28;20052;-23
2021/06/14 01:52:36;;;;;;;4.88;2.50;;;;;;;15.81;71.85;99891.03;5029613;28;20048;-23
2021/06/14 01:55:02;;;;;;;6.10;2.47;;;;;;;15.90;72.37;99891.34;5029878;28;20040;-23
2021/06/14 01:57:28;;;;;;;3.10;2.38;;;;;;;16.23;70.99;99906.34;5047573;28;20608;-23
2021/06/14 01:59:53;;;;;;;5.40;2.70;;;;;;;16.04;71.72;99905.97;5046260;28;20040;-23
2021/06/14 02:02:19;;;;;;;3.50;2.30;;;;;;;15.72;72.90;99907.84;5047560;28;20086;-23
2021/06/14 02:04:47;;;;;;;3.92;2.35;;;;;;;15.97;72.24;99889.22;5046454;28;20111;-23
2021/06/14 02:07:13;;;;;;;4.03;2.42;;;;;;;16.21;71.63;99911.16;5046108;28;20041;-23
2021/06/14 02:09:40;;;;;;;5.60;2.22;;;;;;;15.98;72.53;99900.81;5030089;28;20063;-23
2021/06/14 02:12:08;;;;;;;4.05;2.45;;;;;;;15.80;72.90;99904.72;5046012;28;20481;-23
2021/06/14 02:14:34;;;;;;;4.45;2.60;;;;;;;15.84;73.53;99903.13;5047096;28;20056;-23
2021/06/14 02:17:12;;;;;;;5.22;2.60;;;;;;;15.75;73.32;99892.06;5045980;28;20913;-23
2021/06/14 02:19:42;;;;;;;4.25;2.75;;;;;;;15.84;73.41;99898.56;5046337;28;20160;-24
2021/06/14 02:22:11;;;;;;;6.25;2.45;;;;;;;15.70;74.29;99893.84;5047486;28;20068;-23
2021/06/14 02:24:37;;;;;;;4.57;2.60;;;;;;;15.50;74.90;99895.28;5047217;28;20482;-23
2021/06/14 02:27:02;;;;;;;3.92;2.40;;;;;;;15.46;75.09;99899.56;5047290;28;20067;-23
2021/06/14 02:29:28;;;;;;;4.90;2.50;;;;;;;15.85;73.33;99907.41;5047446;28;20044;-23
2021/06/14 02:31:53;;;;;;;4.75;2.70;;;;;;;16.20;71.94;99914.13;5047561;28;20044;-23
2021/06/14 02:34:19;;;;;;;4.85;2.45;;;;;;;16.34;70.62;99914.47;5047021;28;20025;-23
2021/06/14 02:36:45;;;;;;;5.43;2.55;;;;;;;16.51;69.90;99903.50;5045679;28;20055;-23
2021/06/14 02:39:15;;;;;;;4.25;2.47;;;;;;;16.23;71.65;99906.34;5047196;28;20025;-23
2021/06/14 02:41:41;;;;;;;5.03;2.65;;;;;;;16.21;71.93;99899.59;5047220;28;20409;-23
2021/06/14 02:44:07;;;;;;;4.88;2.60;;;;;;;16.38;71.43;99905.59;5029227;28;20119;-23
2021/06/14 02:46:34;;;;;;;5.20;2.60;;;;;;;16.84;68.94;99903.16;5045399;28;20166;-23
2021/06/14 02:48:59;;;;;;;5.32;2.90;;;;;;;16.76;69.92;99906.34;5029135;28;20029;-23
2021/06/14 02:51:25;;;;;;;12.05;3.38;;;;;;;16.43;71.83;99902.97;5045536;28;20433;-23
2021/06/14 02:54:03;;;;;;;5.15;2.60;;;;;;;16.30;71.50;99899.91;5046916;28;20053;-24
2021/06/14 02:56:29;;;;;;;6.05;3.00;;;;;;;16.30;71.60;99903.41;5045726;28;20032;-23
2021/06/14 02:58:54;;;;;;;5.38;3.30;;;;;;;16.64;69.45;99903.84;5046972;28;20025;-23
2021/06/14 03:01:19;;;;;;;3.85;2.75;;;;;;;15.88;71.60;99911.50;5029260;28;20067;-23
2021/06/14 03:03:45;;;;;;;7.40;3.38;;;;;;;15.99;71.46;99908.59;5029067;28;20033;-23
2021/06/14 03:06:12;;;;;;;5.45;3.15;;;;;;;16.18;70.80;99894.72;5028924;28;20457;-23
2021/06/14 03:08:37;;;;;;;5.70;3.10;;;;;;;16.24;70.55;99893.69;5045771;28;20082;-23
2021/06/14 03:11:03;;;;;;;6.82;3.22;;;;;;;16.62;70.52;99895.22;5045319;28;20753;-23
2021/06/14 03:13:29;;;;;;;8.25;3.22;;;;;;;16.75;69.21;99904.69;5045606;28;20120;-23
2021/06/14 03:15:54;;;;;;;5.07;3.00;;;;;;;16.52;69.38;99905.97;5029183;28;20029;-23
2021/06/14 03:18:20;;;;;;;5.97;3.05;;;;;;;16.56;69.83;99907.06;5046395;28;20040;-23
2021/06/14 03:20:46;;;;;;;5.15;3.65;;;;;;;16.18;70.87;99894.72;5045191;28;20179;-23
2021/06/14 03:23:14;;;;;;;5.07;3.47;;;;;;;16.36;70.31;99910.44;5045292;28;20063;-23
2021/06/14 03:25:39;;;;;;;6.82;3.47;;;;;;;16.43;69.94;99902.16;5046827;28;20041;-23
2021/06/14 03:28:05;;;;;;;6.10;3.60;;;;;;;16.09;70.72;99918.63;5048471;28;20029;-23
2021/06/14 03:30:30;;;;;;;5.60;3.13;;;;;;;16.28;70.04;99913.63;5049648;28;20029;-24
2021/06/14 03:32:56;;;;;;;6.00;3.42;;;;;;;16.54;69.01;99908.41;5050083;28;20028;-23
2021/06/14 03:35:22;;;;;;;5.60;3.20;;;;;;;16.60;69.36;99918.13;5048976;28;20614;-23
2021/06/14 03:37:47;;;;;;;4.72;3.15;;;;;;;16.53;70.25;99912.97;5032417;28;20485;-23
2021/06/14 03:40:13;;;;;;;5.40;3.67;;;;;;;16.68;69.53;99904.16;5032488;28;20036;-24
2021/06/14 03:42:39;;;;;;;6.82;3.58;;;;;;;17.05;67.97;99898.63;5049108;28;20483;-24
2021/06/14 03:45:08;;;;;;;7.95;3.47;;;;;;;16.40;71.87;99914.22;5050386;28;20036;-23
2021/06/14 03:47:34;;;;;;;7.40;3.83;;;;;;;16.07;72.51;99902.75;5048613;28;20029;-23
2021/06/14 03:49:59;;;;;;;7.97;3.78;;;;;;;16.03;73.11;99909.72;5050087;28;20513;-23
2021/06/14 03:52:25;;;;;;;5.00;3.22;;;;;;;15.98;73.68;99907.00;5050309;28;20045;-23
2021/06/14 03:54:50;;;;;;;5.18;3.17;;;;;;;15.64;74.99;99896.47;5050269;28;20477;-23
2021/06/14 03:57:16;;;;;;;5.97;3.42;;;;;;;15.70;74.81;99896.53;5050312;28;20036;-23
2021/06/14 03:59:41;;;;;;;8.70;4.00;;;;;;;15.79;75.00;99908.44;5049857;28;20037;-23
2021/06/14 04:02:07;;;;;;;7.60;3.85;;;;;;;15.81;73.84;99896.41;5049984;28;20029;-23
2021/06/14 04:04:48;;;;;;;7.88;4.00;;;;;;;15.80;74.39;99893.97;5049674;28;20064;-23
2021/06/14 04:07:14;;;;;;;6.95;3.85;;;;;;;15.85;74.16;99891.28;5049894;28;20024;-23
2021/06/14 04:09:39;;;;;;;8.98;4.07;;;;;;;15.72;75.05;99897.94;5048401;28;20037;-23
2021/06/14 04:12:05;;;;;;;5.97;3.58;;;;;;;15.64;75.23;99899.16;5049843;28;20039;-22
2021/06/14 04:14:31;;;;;;;6.78;3.90;;;;;;;15.81;75.50;99890.19;5049186;28;20029;-23
2021/06/14 04:16:56;;;;;;;8.52;4.10;;;;;;;15.76;75.15;99874.03;5049660;28;20508;-22
2021/06/14 04:19:22;;;;;;;10.43;4.45;;;;;;;15.83;75.61;99901.50;5049646;28;20033;-23
2021/06/14 04:21:47;;;;;;;8.10;4.28;;;;;;;16.15;74.55;99906.03;5049693;28;20025;-22
2021/06/14 04:24:12;;;;;;;6.70;4.20;;;;;;;16.24;74.54;99899.06;5049357;28;20036;-23
2021/06/14 04:26:38;;;;;;;6.22;4.28;;;;;;;16.30;74.99;99911.50;5049609;28;20480;-22
2021/06/14 04:29:03;;;;;;;9.60;4.45;;;;;;;16.83;71.86;99917.69;5049218;28;20037;-23
2021/06/14 04:31:29;;;;;;;7.68;4.50;;;;;;;16.77;72.64;99917.91;5047972;28;20441;-23
2021/06/14 04:33:54;;;;;;;9.98;4.60;;;;;;;16.54;73.08;99909.19;5049264;28;20032;-22
2021/06/14 04:36:20;;;;;;;84.10;52.00;;;;;;;16.59;74.48;99911.09;5049427;28;20087;-23
2021/06/14 04:38:45;;;;;;;62.53;36.50;;;;;;;16.51;72.81;99912.44;5049067;28;20032;-23
2021/06/14 04:41:11;;;;;;;9.35;5.43;;;;;;;16.52;73.73;99910.53;5049300;28;20518;-23
2021/06/14 04:43:36;;;;;;;7.43;4.55;;;;;;;16.38;73.69;99924.44;5049087;28;20038;-24
2021/06/14 04:46:02;;;;;;;7.72;4.30;;;;;;;16.27;72.70;99914.72;5047563;28;20071;-23
2021/06/14 04:48:27;;;;;;;9.05;4.80;;;;;;;16.16;73.75;99915.69;5048696;28;20375;-24
2021/06/14 04:50:53;;;;;;;7.10;4.40;;;;;;;16.41;72.35;99910.50;5049072;28;20032;-23
2021/06/14 04:53:18;;;;;;;11.65;4.47;;;;;;;16.60;71.44;99907.34;5048986;28;20048;-23
2021/06/14 04:55:44;;;;;;;8.45;4.60;;;;;;;16.48;70.86;99910.25;5049019;28;20021;-23
2021/06/14 04:58:10;;;;;;;10.32;4.90;;;;;;;16.63;69.63;99917.56;5030809;28;20041;-23
2021/06/14 05:00:35;;;;;;;8.05;4.82;;;;;;;16.64;69.63;99911.94;5048738;28;20037;-23
2021/06/14 05:03:01;;;;;;;15.43;9.32;;;;;;;16.77;69.78;99915.22;5048543;28;20037;-23
2021/06/14 05:05:27;;;;;;;10.98;6.65;;;;;;;16.89;68.78;99909.63;5048926;28;20091;-23
2021/06/14 05:07:52;;;;;;;22.40;14.27;;;;;;;16.79;69.25;99923.84;5048683;28;20832;-23
2021/06/14 05:10:18;;;;;;;176.10;92.30;;;;;;;17.05;68.15;99920.19;5048432;28;20086;-23
2021/06/14 05:12:43;;;;;;;14.15;7.40;;;;;;;17.31;65.85;99895.19;5047349;28;20029;-23
2021/06/14 05:15:09;;;;;;;8.02;4.55;;;;;;;17.00;67.82;99912.09;5048463;28;20029;-23
2021/06/14 05:17:35;;;;;;;8.45;5.05;;;;;;;16.89;69.21;99931.19;5048381;28;20043;-23
2021/06/14 05:20:00;;;;;;;6.97;3.53;;;;;;;17.02;66.87;99930.69;5048550;28;20037;-23
2021/06/14 05:22:26;;;;;;;8.52;4.47;;;;;;;17.22;67.99;99925.38;5046864;28;20043;-23
2021/06/14 05:24:51;;;;;;;9.75;4.88;;;;;;;17.55;67.23;99928.66;5048322;28;20462;-23
2021/06/14 05:27:17;;;;;;;6.10;4.20;;;;;;;17.42;67.75;99924.56;5048319;28;20481;-23
2021/06/14 05:29:42;;;;;;;7.88;4.60;;;;;;;17.67;66.67;99926.50;5048228;28;20040;-24
2021/06/14 05:32:08;;;;;;;6.82;4.40;;;;;;;17.41;64.01;99920.28;5048457;28;20063;-23
2021/06/14 05:34:33;;;;;;;6.25;4.18;;;;;;;17.57;64.31;99915.72;5047844;28;20082;-23
2021/06/14 05:36:59;;;;;;;9.68;5.07;;;;;;;17.63;64.82;99913.81;5048359;28;20086;-25
2021/06/14 05:39:24;;;;;;;8.05;4.38;;;;;;;17.93;63.97;99913.03;5047893;28;20029;-23
2021/06/14 05:41:50;;;;;;;8.23;4.75;;;;;;;17.86;64.68;99920.59;5046714;28;20029;-23
2021/06/14 05:44:16;;;;;;;12.18;4.82;;;;;;;17.77;65.55;99914.88;5047605;28;20151;-23
2021/06/14 05:46:41;;;;;;;7.72;4.32;;;;;;;17.55;64.85;99890.06;5047757;28;20083;-23
2021/06/14 05:49:07;;;;;;;7.40;4.45;;;;;;;18.00;63.46;99902.78;5047670;28;20037;-23
2021/06/14 05:51:32;;;;;;;8.30;5.20;;;;;;;18.18;64.40;99909.47;5047199;28;20048;-23
2021/06/14 05:53:57;;;;;;;9.88;4.70;;;;;;;18.24;62.75;99915.66;5047481;28;20083;-23
2021/06/14 05:56:23;;;;;;;10.50;5.05;;;;;;;18.32;61.71;99906.22;5029788;28;20036;-23
2021/06/14 05:58:49;;;;;;;7.60;4.97;;;;;;;18.66;59.88;99904.47;5047630;28;20512;-24
2021/06/14 06:01:14;;;;;;;6.88;4.55;;;;;;;18.55;61.11;99912.88;5047690;28;20036;-23
2021/06/14 06:03:40;;;;;;;6.80;5.10;;;;;;;18.43;61.74;99914.03;5047483;28;20037;-24
2021/06/14 06:06:05;;;;;;;7.90;4.63;;;;;;;18.30;60.54;99906.47;5048039;28;20040;-23
2021/06/14 06:08:31;;;;;;;5.82;3.70;;;;;;;18.36;60.61;99905.38;5046207;28;20805;-23
2021/06/14 06:10:56;;;;;;;7.40;4.38;;;;;;;18.30;61.59;99909.19;5047326;28;20033;-23
2021/06/14 06:13:21;;;;;;;7.10;4.40;;;;;;;18.39;61.93;99921.06;5046224;28;20039;-24
2021/06/14 06:15:47;;;;;;;6.63;3.97;;;;;;;18.19;60.14;99915.69;5047134;28;20513;-23
2021/06/14 06:18:13;;;;;;;9.40;4.07;;;;;;;17.95;61.32;99907.38;5046769;28;20033;-23
2021/06/14 06:20:38;;;;;;;9.25;4.50;;;;;;;18.01;61.46;99915.16;5047389;28;20055;-23
2021/06/14 06:23:04;;;;;;;6.40;4.70;;;;;;;17.95;62.34;99905.47;5047173;28;20037;-23
2021/06/14 06:25:30;;;;;;;12.77;10.63;;;;;;;18.25;61.91;99909.22;5047053;28;20120;-23
2021/06/14 06:27:55;;;;;;;9.43;4.95;;;;;;;18.37;61.87;99907.00;5046951;28;20029;-23
2021/06/14 06:30:23;;;;;;;6.15;4.25;;;;;;;18.61;59.63;99901.81;5046570;28;20460;-24
2021/06/14 06:32:48;;;;;;;6.85;4.65;;;;;;;18.98;60.25;99905.16;5046923;28;20033;-23
2021/06/14 06:35:14;;;;;;;7.90;4.80;;;;;;;19.00;60.19;99908.41;5047251;28;20041;-24
2021/06/14 06:37:39;;;;;;;7.85;4.65;;;;;;;18.96;59.36;99897.34;5046836;28;20064;-23
2021/06/14 06:40:06;;;;;;;10.73;4.50;;;;;;;18.78;59.22;99890.66;5047171;28;20033;-23
2021/06/14 06:42:31;;;;;;;6.75;5.18;;;;;;;19.25;59.45;99904.75;5046963;28;20106;-23
2021/06/14 06:44:57;;;;;;;7.03;3.83;;;;;;;19.42;57.28;99910.56;5046637;28;20024;-23
2021/06/14 06:47:22;;;;;;;6.65;3.97;;;;;;;19.15;56.51;99902.91;5046860;28;20033;-23
2021/06/14 06:49:48;;;;;;;7.47;3.40;;;;;;;18.93;55.64;99902.50;5046863;28;20426;-23
2021/06/14 06:52:13;;;;;;;7.57;3.15;;;;;;;19.11;55.34;99907.25;5046734;28;20045;-24
2021/06/14 06:54:39;;;;;;;5.05;3.10;;;;;;;18.99;55.31;99895.97;5046520;28;20063;-23
2021/06/14 06:57:05;;;;;;;4.75;3.25;;;;;;;19.11;55.86;99901.06;5045268;28;20025;-23
2021/06/14 06:59:30;;;;;;;4.90;3.00;;;;;;;19.34;55.81;99905.75;5046564;28;20063;-23
2021/06/14 07:01:56;;;;;;;7.30;3.30;;;;;;;19.28;54.94;99894.16;5046564;28;20033;-23
2021/06/14 07:04:21;;;;;;;4.55;2.50;;;;;;;19.50;51.42;99895.66;5050680;28;20051;-23
2021/06/14 07:06:47;;;;;;;5.18;3.13;;;;;;;19.41;54.54;99892.75;5050641;28;20028;-23
2021/06/14 07:09:12;;;;;;;6.13;3.30;;;;;;;19.65;51.58;99890.09;5050605;28;20036;-23
2021/06/14 07:11:38;;;;;;;4.88;2.90;;;;;;;19.77;53.05;99889.75;5050710;28;20032;-23
2021/06/14 07:14:04;;;;;;;7.40;3.30;;;;;;;20.14;53.94;99893.72;5050443;28;20090;-23
2021/06/14 07:16:29;;;;;;;7.10;3.25;;;;;;;20.18;51.17;99885.84;5050201;28;20083;-23
2021/06/14 07:18:55;;;;;;;8.20;3.45;;;;;;;20.24;52.78;99892.81;5050394;28;20053;-23
2021/06/14 07:21:21;;;;;;;6.80;3.40;;;;;;;20.46;52.54;99887.69;5050456;28;20033;-23
2021/06/14 07:23:46;;;;;;;6.50;3.35;;;;;;;20.61;52.14;99880.50;5050534;28;20039;-23
2021/06/14 07:26:12;;;;;;;5.85;3.08;;;;;;;20.81;49.48;99884.88;5048689;28;20060;-23
2021/06/14 07:28:37;;;;;;;8.18;3.20;;;;;;;20.92;50.26;99886.31;5050143;28;20554;-23
2021/06/14 07:31:03;;;;;;;6.90;3.42;;;;;;;21.16;50.29;99880.84;5048838;28;20417;-23
2021/06/14 07:33:29;;;;;;;6.18;3.33;;;;;;;21.22;51.90;99874.25;5050493;28;20033;-23
2021/06/14 07:35:54;;;;;;;6.25;3.20;;;;;;;21.47;52.10;99872.25;5050161;28;20029;-23
2021/06/14 07:38:20;;;;;;;7.45;3.50;;;;;;;21.66;50.85;99867.63;5050037;28;20060;-23
2021/06/14 07:40:45;;;;;;;7.28;3.15;;;;;;;22.06;50.15;99880.75;5050119;28;20033;-23
2021/06/14 07:43:14;;;;;;;11.82;5.45;;;;;;;22.29;48.11;99870.81;5050297;28;20067;-23
2021/06/14 07:45:40;;;;;;;5.28;2.85;;;;;;;22.21;44.48;99860.63;5048618;28;20345;-23
2021/06/14 07:48:06;;;;;;;4.38;2.40;;;;;;;22.15;46.81;99872.69;5050087;28;20185;-23
2021/06/14 07:50:32;;;;;;;5.63;2.33;;;;;;;22.36;43.51;99873.97;5049685;28;20020;-23
2021/06/14 07:52:57;;;;;;;6.45;2.70;;;;;;;22.51;43.91;99861.16;5049635;28;20139;-23
2021/06/14 07:55:23;;;;;;;3.63;2.15;;;;;;;22.50;43.74;99870.44;5049806;28;20387;-24
2021/06/14 07:57:49;;;;;;;6.03;2.80;;;;;;;22.37;43.83;99859.28;5049590;28;20104;-24
2021/06/14 08:00:15;;;;;;;5.28;2.30;;;;;;;22.32;43.47;99866.72;5049412;28;20040;-24
2021/06/14 08:02:40;;;;;;;6.40;2.65;;;;;;;22.42;44.69;99866.53;5048322;28;20032;-25
2021/06/14 08:05:07;;;;;;;4.47;2.25;;;;;;;22.67;43.17;99857.81;5049470;28;20025;-23
2021/06/14 08:07:33;;;;;;;2.60;2.00;;;;;;;22.75;40.46;99859.03;5049282;28;20489;-23
2021/06/14 08:10:03;;;;;;;3.92;2.45;;;;;;;23.16;42.25;99865.50;5049691;28;20116;-24
2021/06/14 08:12:31;;;;;;;6.32;2.35;;;;;;;22.27;41.80;99859.47;5047912;28;20516;-24
2021/06/14 08:14:56;;;;;;;5.25;2.47;;;;;;;22.04;42.33;99851.19;5048690;28;20037;-23
2021/06/14 08:17:22;;;;;;;4.15;2.17;;;;;;;21.61;42.60;99847.91;5048214;28;20095;-23
2021/06/14 08:20:02;;;;;;;5.95;2.80;;;;;;;21.37;43.72;99847.97;5049293;28;20036;-23
2021/06/14 08:25:12;;;;;;;5.80;2.00;;;;;;;22.17;42.82;99844.16;5048049;28;20120;-23
2021/06/14 08:27:41;;;;;;;4.25;2.40;;;;;;;22.32;42.70;99840.34;5049315;28;20033;-23
2021/06/14 08:30:11;;;;;;;2.88;2.05;;;;;;;22.09;42.27;99836.72;5049180;28;20032;-23
2021/06/14 08:32:39;;;;;;;4.07;2.00;;;;;;;21.70;40.97;99829.00;5047699;28;20455;-23
2021/06/14 08:35:06;;;;;;;5.18;2.15;;;;;;;22.00;40.74;99833.88;5049061;28;20064;-23
2021/06/14 08:37:31;;;;;;;4.18;2.10;;;;;;;22.27;41.09;99824.16;5048948;28;20115;-23
2021/06/14 08:39:57;;;;;;;3.85;2.03;;;;;;;21.95;38.70;99809.53;5048978;28;20134;-23
2021/06/14 08:42:22;;;;;;;6.57;2.40;;;;;;;22.76;40.66;99833.47;5048495;28;20028;-23
2021/06/14 08:44:48;;;;;;;3.60;2.05;;;;;;;23.33;40.80;99824.78;5049076;28;20476;-23
2021/06/14 08:47:13;;;;;;;7.53;2.20;;;;;;;23.58;40.46;99828.81;5048705;28;20028;-23
2021/06/14 08:49:39;;;;;;;7.00;2.00;;;;;;;23.59;36.75;99833.13;5031002;28;20040;-23
2021/06/14 08:52:05;;;;;;;4.80;2.22;;;;;;;23.75;35.63;99819.13;5047349;28;20037;-23
2021/06/14 08:54:30;;;;;;;4.30;1.98;;;;;;;22.76;38.26;99844.34;5048431;28;20582;-23
2021/06/14 08:56:56;;;;;;;3.70;2.10;;;;;;;22.92;38.46;99822.22;5047799;28;20029;-23
2021/06/14 08:59:22;;;;;;;4.78;1.80;;;;;;;23.12;37.69;99846.25;5047525;28;20039;-23
2021/06/14 09:01:47;;;;;;;3.53;2.17;;;;;;;21.86;43.31;99843.91;5048650;28;20032;-24
2021/06/14 09:04:13;;;;;;;4.35;1.90;;;;;;;21.72;43.96;99848.50;5048716;28;20044;-23
2021/06/14 09:06:38;;;;;;;9.35;2.30;;;;;;;21.76;45.28;99831.34;5048479;28;20037;-23
2021/06/14 09:09:06;;;;;;;3.95;2.20;;;;;;;21.48;46.22;99832.41;5048232;28;20029;-23
2021/06/14 09:11:32;;;;;;;7.55;2.40;;;;;;;21.37;42.61;99842.56;5048511;28;20025;-23
2021/06/14 09:13:59;;;;;;;4.22;2.42;;;;;;;21.56;44.58;99851.50;5048424;28;20499;-23
2021/06/14 09:16:24;;;;;;;4.82;2.42;;;;;;;21.07;44.10;99855.50;5047954;28;20029;-23
2021/06/14 09:18:50;;;;;;;5.22;2.55;;;;;;;20.70;42.81;99854.41;5048142;28;20527;-24
2021/06/14 09:21:18;;;;;;;4.88;2.28;;;;;;;20.53;43.18;99856.75;5048136;28;20040;-23
2021/06/14 09:24:07;;;;;;;4.57;2.08;;;;;;;20.44;44.10;99851.97;5047949;28;20032;-23
2021/06/14 09:26:37;;;;;;;4.30;2.05;;;;;;;20.01;45.95;99854.63;5045594;28;20037;-23
2021/06/14 09:29:08;;;;;;;10.38;2.63;;;;;;;19.43;48.32;99846.47;5047995;28;20093;-23
2021/06/14 09:31:49;;;;;;;16.67;3.80;;;;;;;19.07;57.40;99861.06;5048061;28;20884;-23
2021/06/14 09:34:14;;;;;;;12.70;4.30;;;;;;;18.31;62.04;99832.53;5047863;28;20031;-23
2021/06/14 09:36:40;;;;;;;7.57;3.83;;;;;;;18.22;59.64;99829.56;5048087;28;20432;-23
2021/06/14 09:39:10;;;;;;;11.07;6.72;;;;;;;18.03;58.25;99826.66;5047528;28;20037;-23
2021/06/14 09:41:44;;;;;;;8.98;3.50;;;;;;;18.52;59.85;99838.66;5047949;28;20036;-23
2021/06/14 09:44:10;;;;;;;14.60;8.13;;;;;;;19.38;57.13;99849.22;5047598;28;20397;-24
2021/06/14 09:46:36;;;;;;;6.75;3.67;;;;;;;19.41;61.28;99844.06;5046185;28;20045;-23
2021/06/14 09:49:04;;;;;;;7.15;3.92;;;;;;;19.16;62.30;99836.94;5047852;28;20056;-23
2021/06/14 09:51:30;;;;;;;8.40;3.70;;;;;;;19.18;63.33;99840.16;5047578;28;20037;-23
2021/06/14 09:53:56;;;;;;;10.77;4.55;;;;;;;19.24;61.56;99822.81;5047706;28;20056;-23
2021/06/14 09:56:25;;;;;;;5.45;3.13;;;;;;;19.45;60.52;99838.88;5047568;28;20025;-22
2021/06/14 09:58:55;;;;;;;7.38;4.38;;;;;;;19.67;59.27;99851.94;5040926;28;20033;-24
2021/06/14 10:01:31;;;;;;;6.50;3.50;;;;;;;18.94;60.60;99823.88;5043114;28;20037;-23
2021/06/14 10:03:58;;;;;;;8.95;3.78;;;;;;;18.75;64.44;99847.97;5044253;28;20163;-23
2021/06/14 10:06:37;;;;;;;6.68;3.05;;;;;;;18.74;59.52;99845.56;5047103;28;20060;-23
2021/06/14 10:09:07;;;;;;;9.15;4.68;;;;;;;19.13;61.61;99863.75;5047061;28;20036;-23
2021/06/14 10:11:35;;;;;;;7.65;4.13;;;;;;;19.35;59.88;99866.00;5047178;28;20108;-23
2021/06/14 10:14:27;;;;;;;5.50;3.10;;;;;;;19.39;58.94;99864.34;5047199;28;20041;-23
2021/06/14 10:16:53;;;;;;;4.53;3.00;;;;;;;19.36;59.57;99878.44;5045614;28;20037;-23
2021/06/14 10:19:18;;;;;;;4.47;2.80;;;;;;;19.12;61.62;99873.72;5028476;28;20035;-23
2021/06/14 10:21:45;;;;;;;3.33;2.60;;;;;;;19.51;62.80;99870.19;5045720;28;20033;-23
2021/06/14 10:24:13;;;;;;;4.63;2.65;;;;;;;20.20;61.59;99854.69;5046185;28;20122;-24
2021/06/14 10:26:40;;;;;;;5.60;2.78;;;;;;;20.73;58.66;99867.34;5047131;28;20033;-23
2021/06/14 10:29:07;;;;;;;3.83;2.30;;;;;;;21.00;56.76;99855.06;5047080;28;20039;-23
2021/06/14 10:31:36;;;;;;;3.28;2.30;;;;;;;20.87;53.27;99843.84;5045929;28;20056;-23
2021/06/14 10:34:02;;;;;;;4.65;2.38;;;;;;;21.78;55.14;99852.75;5046734;28;20040;-23
2021/06/14 10:36:28;;;;;;;5.72;2.47;;;;;;;21.78;51.60;99814.75;5046336;28;20037;-23
2021/06/14 10:38:54;;;;;;;3.88;2.30;;;;;;;21.94;51.10;99824.22;5046908;28;20029;-23
2021/06/14 10:41:20;;;;;;;4.28;2.60;;;;;;;22.13;52.17;99820.59;5047105;28;20029;-23
2021/06/14 10:43:46;;;;;;;5.15;2.40;;;;;;;22.57;48.04;99816.47;5046806;28;20040;-23
2021/06/14 10:46:12;;;;;;;6.95;2.33;;;;;;;22.89;45.99;99806.53;5046551;28;20489;-24
2021/06/14 10:48:38;;;;;;;3.08;2.22;;;;;;;23.08;41.69;99815.34;5045347;28;20028;-23
2021/06/14 10:51:11;;;;;;;4.45;2.40;;;;;;;22.34;42.23;99791.16;5046429;28;20032;-23
2021/06/14 10:53:36;;;;;;;3.15;2.33;;;;;;;22.81;40.58;99810.78;5046801;28;20037;-23
2021/06/14 10:56:02;;;;;;;3.25;1.83;;;;;;;23.08;38.39;99806.38;5046786;28;20071;-23
2021/06/14 10:58:30;;;;;;;3.15;1.80;;;;;;;22.72;35.74;99812.59;5046618;28;20029;-23
2021/06/14 11:01:03;;;;;;;6.22;2.17;;;;;;;23.13;36.09;99815.25;5045107;28;20436;-23
2021/06/14 11:03:47;;;;;;;4.47;1.95;;;;;;;23.43;37.11;99815.59;5046710;28;20043;-23
2021/06/14 11:06:15;;;;;;;7.18;2.00;;;;;;;23.81;36.00;99820.63;5046405;28;20417;-23
2021/06/14 11:08:40;;;;;;;6.03;3.42;;;;;;;24.04;36.09;99813.97;5045584;28;20044;-25
2021/06/14 11:11:07;;;;;;;7.95;2.40;;;;;;;24.70;34.12;99820.56;5045440;28;20029;-24
2021/06/14 11:13:33;;;;;;;4.88;2.28;;;;;;;24.64;36.55;99830.81;5046664;28;20086;-23
2021/06/14 11:16:01;;;;;;;5.68;1.80;;;;;;;24.25;31.55;99816.13;5046450;28;20032;-24
2021/06/14 11:18:31;;;;;;;6.53;2.00;;;;;;;23.85;37.31;99824.34;5044948;28;20120;-23
2021/06/14 11:21:19;;;;;;;2.97;2.00;;;;;;;23.24;36.58;99815.78;5046433;28;20021;-23
2021/06/14 11:23:46;;;;;;;3.97;1.85;;;;;;;22.66;35.72;99817.38;5046348;28;20021;-23
2021/06/14 11:26:12;;;;;;;5.10;2.50;;;;;;;22.46;35.33;99813.97;5046218;28;20029;-24
2021/06/14 11:28:42;;;;;;;4.63;2.22;;;;;;;22.71;37.99;99800.94;5046395;28;20099;-23
2021/06/14 15:17:13;;;;;;;4.25;1.50;;;;;;;21.74;45.07;99722.28;4900446;27;7007082;-23
2021/06/14 15:19:40;;;;;;;3.83;1.42;;;;;;;21.84;43.16;99718.53;5121737;28;20074;-23